Time;durP1;ratioP1;P1;durP2;ratioP2;P2;SDS_P1;SDS_P2;PMS_P1;PMS_P2;Temp;Humidity;BMP_temperature;BMP_pressure;BME280_temperature;BME280_humidity;BME280_pressure;Samples;Min_cycle;Max_cycle;Signal;HPM_P1;HPM_P2
2022/08/05 00:00:36;;;;;;;8.02;5.55;;;;;;;24.83;nan;100828.34;2024240;29;20040;-74
2022/08/05 00:01:39;;;;;;;9.02;5.75;;;;;;;24.85;nan;100831.53;2030393;29;20047;-74
2022/08/05 00:02:41;;;;;;;13.40;4.82;;;;;;;24.78;nan;100828.66;2040077;29;20052;-75
2022/08/05 00:03:47;;;;;;;7.88;5.30;;;;;;;24.78;nan;100836.91;2017336;29;20417;-75
2022/08/05 00:04:50;;;;;;;6.22;5.03;;;;;;;24.81;nan;100830.69;2018163;29;20049;-74
2022/08/05 00:05:57;;;;;;;8.07;5.65;;;;;;;24.81;nan;100831.50;2024751;29;20079;-74
2022/08/05 00:07:00;;;;;;;7.22;5.25;;;;;;;24.82;nan;100821.28;2017114;29;20056;-75
2022/08/05 00:08:04;;;;;;;7.43;5.30;;;;;;;24.82;nan;100816.56;2017451;29;20515;-75
2022/08/05 00:09:09;;;;;;;13.68;5.30;;;;;;;24.82;nan;100826.78;2039760;29;20157;-74
2022/08/05 00:10:15;;;;;;;6.57;4.85;;;;;;;24.81;nan;100830.69;2046499;28;20729;-74
2022/08/05 00:11:19;;;;;;;8.60;5.50;;;;;;;24.81;nan;100820.50;2024789;29;20041;-75
2022/08/05 00:12:23;;;;;;;6.88;4.85;;;;;;;24.82;nan;100816.56;2010100;29;20518;-75
2022/08/05 00:13:25;;;;;;;7.35;5.30;;;;;;;24.82;nan;100824.81;2025114;29;20048;-75
2022/08/05 00:14:28;;;;;;;8.90;5.32;;;;;;;24.78;nan;100821.22;2032292;29;20050;-75
2022/08/05 00:15:33;;;;;;;10.70;4.95;;;;;;;24.76;nan;100817.25;2040675;29;20039;-74
2022/08/05 00:16:39;;;;;;;8.60;4.78;;;;;;;24.77;nan;100816.88;2032119;29;20048;-75
2022/08/05 00:17:47;;;;;;;8.60;4.60;;;;;;;24.76;nan;100811.75;2032481;29;20067;-75
2022/08/05 00:18:55;;;;;;;10.13;4.68;;;;;;;24.78;nan;100803.91;2031742;29;20613;-75
2022/08/05 00:19:58;;;;;;;8.80;4.70;;;;;;;24.74;nan;100798.38;2024038;29;20083;-75
2022/08/05 00:21:02;;;;;;;9.35;5.00;;;;;;;24.73;nan;100813.28;2024471;29;20278;-75
2022/08/05 00:22:08;;;;;;;11.57;5.00;;;;;;;24.74;nan;100820.34;2033486;29;20128;-75
2022/08/05 00:23:15;;;;;;;7.32;5.00;;;;;;;24.74;nan;100815.66;2047459;28;20051;-74
2022/08/05 00:24:17;;;;;;;9.38;4.95;;;;;;;24.76;nan;100811.75;2024176;29;20059;-74
2022/08/05 00:25:24;;;;;;;6.70;4.97;;;;;;;24.73;nan;100814.06;2017922;29;20052;-74
2022/08/05 00:26:27;;;;;;;8.05;5.15;;;;;;;24.73;nan;100814.06;2032661;29;20043;-74
2022/08/05 00:27:32;;;;;;;9.38;5.30;;;;;;;24.72;nan;100801.50;2017894;29;20060;-75
2022/08/05 00:28:34;;;;;;;6.20;4.82;;;;;;;24.69;nan;100813.22;2017878;29;20049;-74
2022/08/05 00:29:37;;;;;;;8.55;4.88;;;;;;;24.72;nan;100811.72;2017329;29;20398;-75
2022/08/05 00:30:52;;;;;;;7.75;5.22;;;;;;;24.72;nan;100800.72;2032955;29;20048;-75
2022/08/05 00:31:56;;;;;;;9.40;5.03;;;;;;;;;;2031468;29;20090;-74
2022/08/05 00:32:58;;;;;;;13.77;5.63;;;;;;;24.72;nan;100800.72;2033142;29;20052;-74
2022/08/05 00:34:04;;;;;;;7.00;4.82;;;;;;;;;;2040008;29;20516;-74
2022/08/05 00:35:11;;;;;;;7.78;4.65;;;;;;;24.69;nan;100799.47;2032452;29;20052;-73
2022/08/05 00:36:16;;;;;;;5.32;4.80;;;;;;;24.69;nan;100795.94;2025646;29;20049;-74
2022/08/05 00:37:18;;;;;;;9.13;4.85;;;;;;;24.66;nan;100802.19;2025321;29;20064;-73
2022/08/05 00:38:21;;;;;;;11.02;4.95;;;;;;;24.67;nan;100798.25;2024697;29;20683;-74
2022/08/05 00:39:24;;;;;;;10.07;4.88;;;;;;;24.64;nan;100793.50;2023510;29;20048;-74
2022/08/05 00:40:29;;;;;;;7.03;4.70;;;;;;;24.65;nan;100801.38;2009819;29;20077;-73
2022/08/05 00:41:31;;;;;;;8.52;5.03;;;;;;;;;;2024601;29;20036;-75
2022/08/05 00:42:34;;;;;;;11.25;4.68;;;;;;;;;;2032479;29;20066;-76
2022/08/05 00:43:35;;;;;;;6.35;4.72;;;;;;;24.63;nan;100805.66;2032175;29;20055;-74
2022/08/05 00:44:39;;;;;;;12.77;4.63;;;;;;;;;;2025396;29;20052;-75
2022/08/05 00:45:42;;;;;;;7.53;4.80;;;;;;;24.62;nan;100806.81;2024582;29;20041;-74
2022/08/05 00:46:44;;;;;;;8.68;4.93;;;;;;;24.62;nan;100801.31;2024658;29;20513;-75
2022/08/05 00:47:50;;;;;;;7.18;5.05;;;;;;;24.62;nan;100802.13;2017084;29;20506;-74
2022/08/05 00:48:53;;;;;;;10.43;4.90;;;;;;;;;;2017524;29;20049;-74
2022/08/05 00:49:56;;;;;;;5.07;4.55;;;;;;;24.60;nan;100793.44;2017117;29;20041;-74
2022/08/05 00:50:58;;;;;;;11.57;5.00;;;;;;;;;;2024400;29;20683;-74
2022/08/05 00:52:00;;;;;;;10.88;4.88;;;;;;;;;;2016850;29;20048;-74
2022/08/05 00:53:01;;;;;;;6.55;5.18;;;;;;;;;;2016999;29;20064;-75
2022/08/05 00:54:06;;;;;;;7.18;4.60;;;;;;;24.57;nan;100804.38;2032472;29;20063;-73
2022/08/05 00:55:12;;;;;;;7.30;4.35;;;;;;;24.57;nan;100788.69;2024511;29;20040;-74
2022/08/05 00:56:34;;;;;;;7.22;4.47;;;;;;;24.54;nan;100827.09;2016856;29;20037;-74
2022/08/05 00:57:38;;;;;;;7.07;4.60;;;;;;;24.51;nan;100784.66;2022034;29;20404;-75
2022/08/05 00:58:42;;;;;;;10.98;5.00;;;;;;;24.52;nan;100787.00;2025533;29;20134;-74
2022/08/05 00:59:47;;;;;;;7.03;4.95;;;;;;;24.52;nan;100802.72;2025546;29;20048;-74
2022/08/05 01:00:52;;;;;;;9.70;4.57;;;;;;;24.49;nan;100797.97;2024323;29;20044;-75
2022/08/05 01:01:57;;;;;;;10.38;5.13;;;;;;;24.47;nan;100795.59;2022886;29;20055;-74
2022/08/05 01:02:59;;;;;;;5.47;4.60;;;;;;;;;;2010154;29;20050;-74
2022/08/05 01:04:04;;;;;;;10.00;5.07;;;;;;;24.48;nan;100796.38;2017128;29;20048;-74
2022/08/05 01:05:06;;;;;;;7.82;5.00;;;;;;;;;;2032176;29;20044;-73
2022/08/05 01:06:09;;;;;;;5.85;4.47;;;;;;;24.44;nan;100801.03;2032613;29;20071;-73
2022/08/05 01:07:11;;;;;;;11.95;4.97;;;;;;;;;;2031775;29;20043;-73
2022/08/05 01:08:17;;;;;;;8.32;4.97;;;;;;;24.43;nan;100789.25;2024933;29;20051;-73
2022/08/05 01:09:24;;;;;;;8.80;4.80;;;;;;;24.41;nan;100796.25;2025420;29;20060;-74
2022/08/05 01:10:29;;;;;;;6.18;4.70;;;;;;;24.41;nan;100794.31;2032235;29;20138;-74
2022/08/05 01:11:36;;;;;;;7.03;5.10;;;;;;;24.42;nan;100792.34;2024469;29;20056;-74
2022/08/05 01:12:50;;;;;;;7.90;5.35;;;;;;;24.37;nan;100784.38;2025104;29;20072;-74
2022/08/05 01:14:00;;;;;;;6.28;5.13;;;;;;;24.37;nan;100789.88;2040243;29;20052;-74
2022/08/05 01:15:05;;;;;;;8.18;5.28;;;;;;;24.36;nan;100793.78;2029498;29;20083;-74
2022/08/05 01:16:13;;;;;;;6.78;4.97;;;;;;;24.31;nan;100803.13;2032644;29;20398;-74
2022/08/05 01:17:25;;;;;;;8.32;5.13;;;;;;;24.29;nan;100787.00;2032306;29;20048;-74
2022/08/05 01:18:38;;;;;;;11.07;5.32;;;;;;;24.31;nan;100786.66;2026112;29;20055;-74
2022/08/05 01:19:50;;;;;;;17.38;5.97;;;;;;;24.33;nan;100791.75;2033924;29;20060;-74
2022/08/05 01:21:24;;;;;;;8.30;5.60;;;;;;;24.31;nan;100792.16;2032086;29;20052;-74
2022/08/05 01:22:58;;;;;;;9.25;5.40;;;;;;;24.24;nan;100781.81;2021335;29;20065;-74
2022/08/05 01:24:24;;;;;;;12.07;5.50;;;;;;;24.26;nan;100784.19;2032782;29;20488;-74
2022/08/05 01:26:03;;;;;;;9.68;5.57;;;;;;;24.25;nan;100788.13;2048089;29;20035;-75
2022/08/05 01:27:19;;;;;;;9.82;5.45;;;;;;;24.18;nan;100776.97;2033874;29;20055;-74
2022/08/05 01:28:23;;;;;;;12.23;5.97;;;;;;;24.12;nan;100784.75;2026445;29;20043;-74
2022/08/05 01:29:33;;;;;;;10.70;6.32;;;;;;;;;;2016888;29;20064;-74
2022/08/05 01:30:36;;;;;;;9.00;5.10;;;;;;;;;;2026837;29;20043;-75
2022/08/05 01:32:00;;;;;;;12.07;5.72;;;;;;;24.06;nan;100775.22;2035220;29;20031;-75
2022/08/05 01:33:07;;;;;;;10.50;5.85;;;;;;;;;;2015783;29;20048;-75
2022/08/05 01:34:20;;;;;;;8.88;5.78;;;;;;;24.04;nan;100774.78;2018071;29;20119;-75
2022/08/05 01:35:29;;;;;;;9.23;5.78;;;;;;;24.03;nan;100770.47;2032315;29;20555;-74
2022/08/05 01:36:33;;;;;;;10.07;5.80;;;;;;;;;;2025099;29;20043;-74
2022/08/05 01:37:55;;;;;;;11.80;5.82;;;;;;;23.98;nan;100774.28;2040635;29;20039;-75
2022/08/05 01:38:58;;;;;;;12.00;5.72;;;;;;;;;;2035994;29;20059;-74
2022/08/05 01:40:01;;;;;;;11.95;6.20;;;;;;;23.94;nan;100789.13;2040039;29;20040;-74
2022/08/05 01:41:04;;;;;;;9.20;5.43;;;;;;;23.98;nan;100785.25;2031972;29;20044;-74
2022/08/05 01:42:13;;;;;;;9.27;5.65;;;;;;;23.97;nan;100766.41;2009748;29;20037;-74
2022/08/05 01:43:16;;;;;;;10.23;5.93;;;;;;;23.91;nan;100784.34;2016536;29;20060;-74
2022/08/05 01:44:20;;;;;;;12.48;5.60;;;;;;;;;;2024364;29;20041;-74
2022/08/05 01:45:25;;;;;;;7.80;5.80;;;;;;;23.94;nan;100780.88;2032344;29;20567;-75
2022/08/05 01:46:34;;;;;;;10.32;5.93;;;;;;;23.92;nan;100781.22;2031374;29;20710;-74
2022/08/05 01:47:37;;;;;;;9.82;5.72;;;;;;;23.89;nan;100770.97;2023804;29;20111;-75
2022/08/05 01:48:40;;;;;;;7.65;5.43;;;;;;;;;;2023684;29;20051;-74
2022/08/05 01:49:44;;;;;;;5.90;5.30;;;;;;;23.90;nan;100771.78;2032478;29;20047;-74
2022/08/05 01:50:47;;;;;;;8.27;5.53;;;;;;;23.92;nan;100783.19;2031906;29;20032;-74
2022/08/05 01:52:13;;;;;;;9.30;5.85;;;;;;;23.74;nan;100774.59;2016749;29;20422;-73
2022/08/05 01:53:21;;;;;;;9.70;5.90;;;;;;;23.75;nan;100766.00;2018008;29;20040;-74
2022/08/05 01:54:34;;;;;;;7.28;5.30;;;;;;;23.81;nan;100764.56;2023663;29;20056;-74
2022/08/05 01:55:41;;;;;;;10.25;6.10;;;;;;;23.84;nan;100767.75;2019022;29;20053;-74
2022/08/05 01:56:44;;;;;;;8.45;5.97;;;;;;;;;;2015064;29;20056;-74
2022/08/05 01:57:45;;;;;;;8.35;5.78;;;;;;;;;;2024113;29;20053;-74
2022/08/05 01:58:51;;;;;;;8.75;5.55;;;;;;;23.78;nan;100770.78;2039776;29;20047;-75
2022/08/05 01:59:57;;;;;;;7.95;5.45;;;;;;;23.79;nan;100766.88;2023387;29;20548;-75
2022/08/05 02:01:01;;;;;;;6.53;5.55;;;;;;;23.81;nan;100777.50;2018320;29;20048;-75
2022/08/05 02:02:04;;;;;;;9.35;5.45;;;;;;;23.79;nan;100772.34;2032349;29;20032;-75
2022/08/05 02:03:19;;;;;;;8.40;5.32;;;;;;;23.79;nan;100772.34;2039536;29;20044;-75
2022/08/05 02:04:25;;;;;;;10.55;5.78;;;;;;;23.77;nan;100773.88;2032841;29;20055;-74
2022/08/05 02:05:35;;;;;;;13.95;5.60;;;;;;;23.75;nan;100804.44;2032131;29;20051;-75
2022/08/05 02:06:37;;;;;;;;;;;;;;;23.74;nan;100764.44;2024961;29;20495;-74
2022/08/05 02:07:42;;;;;;;12.70;5.88;;;;;;;23.75;nan;100776.19;2023852;29;19923;-75
2022/08/05 02:08:44;;;;;;;9.10;5.32;;;;;;;23.71;nan;100770.66;2031316;29;20424;-74
2022/08/05 02:09:46;;;;;;;8.80;5.50;;;;;;;23.73;nan;100779.28;2024321;29;20040;-75
2022/08/05 02:10:55;;;;;;;8.43;5.30;;;;;;;23.71;nan;100767.13;2032253;29;20024;-74
2022/08/05 02:12:11;;;;;;;7.57;5.43;;;;;;;;;;2033730;29;20517;-74
2022/08/05 02:13:40;;;;;;;8.07;5.68;;;;;;;23.73;nan;100762.81;2030243;29;20055;-73
2022/08/05 02:14:52;;;;;;;8.13;5.43;;;;;;;23.80;nan;100773.16;2020170;29;20056;-74
2022/08/05 02:16:04;;;;;;;8.05;5.45;;;;;;;23.80;nan;100773.16;2034796;29;20353;-74
2022/08/05 02:17:32;;;;;;;8.27;5.70;;;;;;;23.78;nan;100770.78;2029763;29;20166;-74
2022/08/05 02:18:52;;;;;;;8.05;5.47;;;;;;;23.81;nan;100772.00;2027300;29;20048;-74
2022/08/05 02:20:01;;;;;;;8.18;5.88;;;;;;;23.76;nan;100770.34;2019322;29;20049;-74
2022/08/05 02:21:27;;;;;;;6.80;5.05;;;;;;;23.72;nan;100772.22;2017870;29;20049;-74
2022/08/05 02:22:28;;;;;;;8.77;5.13;;;;;;;;;;2032445;29;20130;-74
2022/08/05 02:23:35;;;;;;;7.22;5.30;;;;;;;;;;2031736;29;20040;-74
2022/08/05 02:24:45;;;;;;;7.82;5.38;;;;;;;23.74;nan;100778.16;2031530;29;20827;-74
2022/08/05 02:25:50;;;;;;;8.05;5.50;;;;;;;23.70;nan;100801.19;2024203;29;20055;-74
2022/08/05 02:26:55;;;;;;;7.50;5.55;;;;;;;23.70;nan;100768.25;2024091;29;20040;-74
2022/08/05 02:27:57;;;;;;;9.70;5.68;;;;;;;;;;2032059;29;20043;-74
2022/08/05 02:29:00;;;;;;;8.35;5.78;;;;;;;23.68;nan;100771.34;2016495;29;20052;-74
2022/08/05 02:30:02;;;;;;;7.25;5.25;;;;;;;23.66;nan;100762.66;2024974;29;20044;-74
2022/08/05 02:31:06;;;;;;;7.10;5.10;;;;;;;;;;2030354;29;20103;-75
2022/08/05 02:32:10;;;;;;;6.40;5.50;;;;;;;23.61;nan;100760.19;2019419;29;20052;-74
2022/08/05 02:33:18;;;;;;;7.35;5.35;;;;;;;23.60;nan;100761.38;2024671;29;20409;-75
2022/08/05 02:34:21;;;;;;;7.70;5.60;;;;;;;23.62;nan;100767.28;2032458;29;20048;-75
2022/08/05 02:35:27;;;;;;;10.75;4.72;;;;;;;23.63;nan;100768.88;2031703;29;20044;-74
2022/08/05 02:36:34;;;;;;;9.15;5.50;;;;;;;23.61;nan;100762.94;2032469;29;20040;-74
2022/08/05 02:37:41;;;;;;;6.97;4.68;;;;;;;23.62;nan;100766.50;2024199;29;20044;-74
2022/08/05 02:38:53;;;;;;;7.20;4.90;;;;;;;23.52;nan;100762.41;2024428;29;20056;-75
2022/08/05 02:39:57;;;;;;;9.68;5.22;;;;;;;;;;2033088;29;20060;-75
2022/08/05 02:40:59;;;;;;;9.55;5.28;;;;;;;23.47;nan;100760.72;2016417;29;20052;-75
2022/08/05 02:42:01;;;;;;;7.88;5.18;;;;;;;;;;2016343;29;20109;-75
2022/08/05 02:43:07;;;;;;;10.23;5.43;;;;;;;23.49;nan;100763.13;2030033;29;20060;-75
2022/08/05 02:44:12;;;;;;;10.95;5.45;;;;;;;23.46;nan;100764.63;2030979;29;20079;-74
2022/08/05 02:45:14;;;;;;;9.05;5.38;;;;;;;;;;2016785;29;20441;-75
2022/08/05 02:46:16;;;;;;;6.28;5.10;;;;;;;23.49;nan;100768.59;2024628;29;20047;-74
2022/08/05 02:47:21;;;;;;;7.72;5.03;;;;;;;23.44;nan;100763.38;2024312;29;20420;-74
2022/08/05 02:48:24;;;;;;;9.40;5.20;;;;;;;;;;2009187;29;20414;-75
2022/08/05 02:49:31;;;;;;;10.43;5.38;;;;;;;23.45;nan;100762.22;2009423;29;20053;-75
2022/08/05 02:50:35;;;;;;;8.40;5.38;;;;;;;;;;2017288;29;20537;-75
2022/08/05 02:51:37;;;;;;;9.20;5.20;;;;;;;23.34;nan;100762.00;2024559;29;20049;-75
2022/08/05 02:52:43;;;;;;;8.50;4.93;;;;;;;23.38;nan;100749.16;2023937;29;20063;-75
2022/08/05 02:53:46;;;;;;;16.83;6.70;;;;;;;23.38;nan;100767.56;2031948;29;20064;-75
2022/08/05 02:54:49;;;;;;;7.55;5.70;;;;;;;;;;2032029;29;20052;-75
2022/08/05 02:55:52;;;;;;;7.85;5.22;;;;;;;23.35;nan;100758.09;2047550;29;20039;-74
2022/08/05 02:56:55;;;;;;;7.70;5.03;;;;;;;23.34;nan;100762.81;2023818;29;20048;-74
2022/08/05 02:57:58;;;;;;;6.60;4.95;;;;;;;23.39;nan;100758.19;2023550;29;20053;-74
2022/08/05 02:59:04;;;;;;;15.35;6.22;;;;;;;23.34;nan;100746.34;2046711;29;20047;-74
2022/08/05 03:00:06;;;;;;;7.53;5.88;;;;;;;;;;2023852;29;20749;-74
2022/08/05 03:01:12;;;;;;;12.90;5.05;;;;;;;23.28;nan;100753.28;2022588;29;20037;-74
2022/08/05 03:02:16;;;;;;;7.53;5.38;;;;;;;;;;2031552;29;20052;-73
2022/08/05 03:03:18;;;;;;;7.60;5.70;;;;;;;;;;2023835;29;20493;-74
2022/08/05 03:04:20;;;;;;;7.57;5.20;;;;;;;23.29;nan;100760.34;2024000;29;20037;-74
2022/08/05 03:05:22;;;;;;;9.00;5.55;;;;;;;;;;2024142;29;20040;-74
2022/08/05 03:06:25;;;;;;;8.68;5.47;;;;;;;;;;2023502;29;20041;-74
2022/08/05 03:07:28;;;;;;;7.05;5.00;;;;;;;23.34;nan;100762.81;2016560;29;20486;-74
2022/08/05 03:08:32;;;;;;;10.18;5.30;;;;;;;23.33;nan;100765.94;2008823;29;20423;-74
2022/08/05 03:09:35;;;;;;;7.95;5.45;;;;;;;23.27;nan;100754.44;2024394;29;20056;-74
2022/08/05 03:10:38;;;;;;;7.25;5.30;;;;;;;23.28;nan;100756.00;2031534;29;20039;-74
2022/08/05 03:11:40;;;;;;;11.88;5.20;;;;;;;;;;2039802;29;20043;-74
2022/08/05 03:12:42;;;;;;;6.03;4.78;;;;;;;23.27;nan;100757.19;2031470;29;20491;-74
2022/08/05 03:13:46;;;;;;;9.20;5.78;;;;;;;23.24;nan;100746.13;2023942;29;20064;-74
2022/08/05 03:14:47;;;;;;;6.15;5.10;;;;;;;;;;2024299;29;20048;-74
2022/08/05 03:15:49;;;;;;;7.82;5.57;;;;;;;23.30;nan;100756.47;2031916;29;20055;-74
2022/08/05 03:16:51;;;;;;;8.05;5.10;;;;;;;23.25;nan;100759.47;2024211;29;20041;-74
2022/08/05 03:17:56;;;;;;;9.55;5.78;;;;;;;23.26;nan;100758.31;2023712;29;20056;-74
2022/08/05 03:18:58;;;;;;;6.38;5.00;;;;;;;;;;2031737;29;20500;-74
2022/08/05 03:20:00;;;;;;;7.95;5.55;;;;;;;23.22;nan;100754.72;2026913;29;20044;-74
2022/08/05 03:21:05;;;;;;;9.43;5.65;;;;;;;23.20;nan;100762.50;2015968;29;20041;-75
2022/08/05 03:22:07;;;;;;;7.32;5.55;;;;;;;23.26;nan;100750.09;2024377;29;20490;-74
2022/08/05 03:23:12;;;;;;;9.75;5.80;;;;;;;23.30;nan;100750.19;2031432;29;20052;-74
2022/08/05 03:24:14;;;;;;;12.15;5.20;;;;;;;23.31;nan;100784.69;2016409;29;20065;-74
2022/08/05 03:25:17;;;;;;;7.57;5.47;;;;;;;23.35;nan;100753.41;2008239;29;20470;-74
2022/08/05 03:26:19;;;;;;;10.25;5.45;;;;;;;;;;2002137;29;20058;-74
2022/08/05 03:27:22;;;;;;;8.45;5.25;;;;;;;23.48;nan;100756.03;2018477;29;20076;-74
2022/08/05 03:28:24;;;;;;;9.02;5.22;;;;;;;;;;2016548;29;20458;-74
2022/08/05 03:29:26;;;;;;;8.15;5.60;;;;;;;;;;2015800;29;20053;-74
2022/08/05 03:30:34;;;;;;;13.35;5.43;;;;;;;;;;2024273;29;20059;-75
2022/08/05 03:31:38;;;;;;;11.95;5.20;;;;;;;;;;2036230;29;20040;-74
2022/08/05 03:32:40;;;;;;;7.30;5.50;;;;;;;;;;2033204;29;20067;-74
2022/08/05 03:33:42;;;;;;;7.45;5.47;;;;;;;23.65;nan;100752.84;2025506;29;20037;-74
2022/08/05 03:34:48;;;;;;;9.27;5.78;;;;;;;23.70;nan;100758.06;2041214;29;20381;-75
2022/08/05 03:35:50;;;;;;;8.07;5.78;;;;;;;;;;2048135;29;20027;-75
2022/08/05 03:36:52;;;;;;;10.77;5.40;;;;;;;;;;2032958;29;20121;-75
2022/08/05 03:37:57;;;;;;;6.65;5.28;;;;;;;;;;2032789;29;20701;-76
2022/08/05 03:39:06;;;;;;;9.73;5.82;;;;;;;23.96;nan;100753.81;2025344;29;20079;-75
2022/08/05 03:40:11;;;;;;;7.38;6.13;;;;;;;;;;2020563;29;20144;-74
2022/08/05 03:41:15;;;;;;;7.95;6.22;;;;;;;23.95;nan;100760.47;2025413;29;20044;-74
2022/08/05 03:42:19;;;;;;;10.80;5.93;;;;;;;24.03;nan;100762.22;2032930;29;20055;-74
2022/08/05 03:43:28;;;;;;;10.75;5.63;;;;;;;24.06;nan;100775.22;2022387;29;20053;-75
2022/08/05 03:44:31;;;;;;;12.10;5.68;;;;;;;24.08;nan;100766.59;2026045;29;20424;-75
2022/08/05 03:45:34;;;;;;;8.82;5.50;;;;;;;24.11;nan;100772.16;2025511;29;20040;-75
2022/08/05 03:46:36;;;;;;;10.27;5.28;;;;;;;24.16;nan;100769.13;2022787;29;20041;-76
2022/08/05 03:47:39;;;;;;;10.43;5.72;;;;;;;24.22;nan;100770.41;2017435;29;20045;-77
2022/08/05 03:48:42;;;;;;;9.48;5.43;;;;;;;24.28;nan;100771.69;2017858;29;20052;-77
2022/08/05 03:49:50;;;;;;;8.77;5.82;;;;;;;24.34;nan;100779.59;2023409;29;20044;-77
2022/08/05 03:51:02;;;;;;;10.38;5.57;;;;;;;24.44;nan;100773.53;2025066;29;20061;-77
2022/08/05 03:52:10;;;;;;;10.23;5.95;;;;;;;24.54;nan;100772.13;2026612;29;20040;-77
2022/08/05 03:53:19;;;;;;;11.00;5.93;;;;;;;24.58;nan;100773.75;2025228;29;20643;-77
2022/08/05 03:54:26;;;;;;;7.30;5.70;;;;;;;24.58;nan;100772.97;2017794;29;20056;-77
2022/08/05 03:55:34;;;;;;;7.88;6.35;;;;;;;;;;2026070;29;20051;-77
2022/08/05 03:57:01;;;;;;;8.73;6.22;;;;;;;24.65;nan;100776.66;2025531;29;20048;-77
2022/08/05 03:58:10;;;;;;;10.68;6.28;;;;;;;24.73;nan;100781.06;2021131;29;20075;-77
2022/08/05 03:59:45;;;;;;;10.90;5.90;;;;;;;24.74;nan;100777.16;2025750;29;20059;-77
2022/08/05 04:00:53;;;;;;;10.57;6.60;;;;;;;24.83;nan;100778.84;2016743;29;20044;-77
2022/08/05 04:01:58;;;;;;;8.55;6.00;;;;;;;24.92;nan;100776.63;2020548;29;20057;-78
2022/08/05 04:03:04;;;;;;;7.68;6.00;;;;;;;24.98;nan;100769.66;2032678;29;20051;-78
2022/08/05 04:04:08;;;;;;;8.95;5.55;;;;;;;25.04;nan;100772.88;2025899;29;20049;-77
2022/08/05 04:05:12;;;;;;;11.77;6.18;;;;;;;25.12;nan;100775.38;2025747;29;20063;-76
2022/08/05 04:06:17;;;;;;;10.60;5.80;;;;;;;25.19;nan;100775.50;2041084;29;20503;-76
2022/08/05 04:07:24;;;;;;;6.47;5.63;;;;;;;25.15;nan;100773.84;2040087;29;20567;-77
2022/08/05 04:08:25;;;;;;;9.82;6.03;;;;;;;;;;2033037;29;20063;-77
2022/08/05 04:09:29;;;;;;;6.55;5.85;;;;;;;25.23;nan;100763.75;2032718;29;20042;-77
2022/08/05 04:10:31;;;;;;;14.55;7.05;;;;;;;;;;2025152;29;20040;-76
2022/08/05 04:11:36;;;;;;;7.50;6.20;;;;;;;25.33;nan;100763.88;2032890;29;20040;-77
2022/08/05 04:12:39;;;;;;;9.95;6.20;;;;;;;25.35;nan;100761.53;2033072;29;20040;-76
2022/08/05 04:13:44;;;;;;;11.48;6.22;;;;;;;25.32;nan;100762.28;2031081;29;20143;-76
2022/08/05 04:14:47;;;;;;;7.18;6.00;;;;;;;25.17;nan;100769.56;2025608;29;20056;-77
2022/08/05 04:15:52;;;;;;;10.43;5.80;;;;;;;25.15;nan;100762.84;2025191;29;20040;-77
2022/08/05 04:16:58;;;;;;;10.93;6.25;;;;;;;25.27;nan;100770.88;2027054;29;20047;-76
2022/08/05 04:18:05;;;;;;;10.13;6.15;;;;;;;25.41;nan;100762.00;2033077;29;20044;-77
2022/08/05 04:19:12;;;;;;;10.27;6.07;;;;;;;25.46;nan;100767.16;2032799;29;20044;-77
2022/08/05 04:20:18;;;;;;;8.50;6.03;;;;;;;25.46;nan;100761.66;2025504;29;20497;-76
2022/08/05 04:21:23;;;;;;;7.50;5.90;;;;;;;25.49;nan;100766.41;2025107;29;20036;-76
2022/08/05 04:22:26;;;;;;;6.05;5.03;;;;;;;25.55;nan;100764.91;2025303;29;20044;-76
2022/08/05 04:23:33;;;;;;;7.45;5.20;;;;;;;25.54;nan;100763.34;2031239;29;20036;-76
2022/08/05 04:24:35;;;;;;;11.20;5.45;;;;;;;25.64;nan;100762.66;2033354;29;20055;-76
2022/08/05 04:25:37;;;;;;;7.03;5.20;;;;;;;25.57;nan;100762.59;2040648;29;20031;-76
2022/08/05 04:26:40;;;;;;;8.25;5.10;;;;;;;25.63;nan;100761.09;2025123;29;20045;-76
2022/08/05 04:27:43;;;;;;;7.70;5.35;;;;;;;25.62;nan;100765.00;2025482;29;20460;-76
2022/08/05 04:28:48;;;;;;;8.90;4.85;;;;;;;25.67;nan;100761.91;2024873;29;20037;-76
2022/08/05 04:29:51;;;;;;;8.18;5.10;;;;;;;25.82;nan;100762.91;2025743;29;20041;-76
2022/08/05 04:30:53;;;;;;;7.40;4.88;;;;;;;25.89;nan;100751.94;2033109;29;20063;-77
2022/08/05 04:31:55;;;;;;;8.90;4.88;;;;;;;26.00;nan;100757.56;2040838;29;20042;-76
2022/08/05 04:32:57;;;;;;;7.05;5.10;;;;;;;26.04;nan;100763.91;2040591;29;20043;-76
2022/08/05 04:34:01;;;;;;;9.73;5.30;;;;;;;26.00;nan;100762.28;2024890;29;20079;-76
2022/08/05 04:35:03;;;;;;;11.95;5.30;;;;;;;;;;2024263;29;20059;-76
2022/08/05 04:36:11;;;;;;;6.47;5.18;;;;;;;26.18;nan;100768.75;2017245;29;20060;-76
2022/08/05 04:37:13;;;;;;;8.95;4.97;;;;;;;26.16;nan;100764.78;2041032;29;20055;-76
2022/08/05 04:38:18;;;;;;;14.25;5.82;;;;;;;25.86;nan;100768.44;2038529;29;20051;-76
2022/08/05 04:39:22;;;;;;;5.78;5.00;;;;;;;25.99;nan;100761.50;2033355;29;20028;-76
2022/08/05 04:40:25;;;;;;;8.35;5.30;;;;;;;26.01;nan;100752.81;2032311;29;20051;-76
2022/08/05 04:41:30;;;;;;;9.18;5.07;;;;;;;26.01;nan;100759.16;2031870;29;20113;-77
2022/08/05 04:42:33;;;;;;;9.68;5.45;;;;;;;26.12;nan;100764.75;2039811;29;20044;-77
2022/08/05 04:43:35;;;;;;;7.63;5.28;;;;;;;26.06;nan;100755.25;2031603;29;20052;-78
2022/08/05 04:44:38;;;;;;;7.32;5.15;;;;;;;26.00;nan;100749.28;2017516;29;20429;-76
2022/08/05 04:45:42;;;;;;;6.85;5.03;;;;;;;26.00;nan;100765.03;2032945;29;20638;-76
2022/08/05 04:46:44;;;;;;;11.68;5.30;;;;;;;26.07;nan;100757.66;2039485;29;20058;-77
2022/08/05 04:47:47;;;;;;;8.80;5.55;;;;;;;26.17;nan;100753.41;2040527;29;20039;-76
2022/08/05 04:48:50;;;;;;;6.47;5.80;;;;;;;26.32;nan;100757.06;2032437;29;20048;-76
2022/08/05 04:49:54;;;;;;;10.98;5.63;;;;;;;26.31;nan;100756.25;2017208;29;20044;-77
2022/08/05 04:50:58;;;;;;;9.15;5.82;;;;;;;26.30;nan;100771.22;2010021;29;20050;-78
2022/08/05 04:52:02;;;;;;;6.65;5.15;;;;;;;26.19;nan;100759.31;2017511;29;20059;-76
2022/08/05 04:53:05;;;;;;;16.55;6.10;;;;;;;26.30;nan;100753.91;2025058;29;20536;-77
2022/08/05 04:54:09;;;;;;;8.48;6.28;;;;;;;;;;2025336;29;20040;-78
2022/08/05 04:55:11;;;;;;;11.70;5.63;;;;;;;26.52;nan;100754.91;2040305;29;20051;-75
2022/08/05 04:56:15;;;;;;;8.27;5.28;;;;;;;26.68;nan;100751.84;2032077;29;20052;-76
2022/08/05 04:57:17;;;;;;;11.25;6.07;;;;;;;26.81;nan;100755.88;2012912;29;20060;-76
2022/08/05 04:58:20;;;;;;;6.75;5.25;;;;;;;26.91;nan;100757.91;2024941;29;20052;-76
2022/08/05 04:59:22;;;;;;;9.18;6.30;;;;;;;26.94;nan;100757.13;2032468;29;20043;-76
2022/08/05 05:00:24;;;;;;;8.43;5.88;;;;;;;26.90;nan;100752.78;2016774;29;20036;-76
2022/08/05 05:01:39;;;;;;;9.13;5.50;;;;;;;26.96;nan;100754.78;2012822;29;20049;-76
2022/08/05 05:02:42;;;;;;;10.20;5.63;;;;;;;27.07;nan;100756.81;2020396;29;20097;-76
2022/08/05 05:03:43;;;;;;;10.23;5.90;;;;;;;26.93;nan;100769.34;2032641;29;20091;-76
2022/08/05 05:04:45;;;;;;;15.70;5.70;;;;;;;27.01;nan;100748.88;2032602;29;20051;-76
2022/08/05 05:05:53;;;;;;;9.80;5.70;;;;;;;27.06;nan;100767.06;2032739;29;20044;-76
2022/08/05 05:06:56;;;;;;;7.82;5.68;;;;;;;27.15;nan;100748.22;2031135;29;20059;-76
2022/08/05 05:08:04;;;;;;;11.93;5.97;;;;;;;27.14;nan;100757.66;2024978;29;20417;-76
2022/08/05 05:09:06;;;;;;;15.60;6.30;;;;;;;27.30;nan;100753.78;2032355;29;20058;-76
2022/08/05 05:10:09;;;;;;;11.00;5.75;;;;;;;27.12;nan;100759.22;2032326;29;20063;-76
2022/08/05 05:11:25;;;;;;;10.93;6.22;;;;;;;27.03;nan;100757.59;2039884;29;20058;-76
2022/08/05 05:12:28;;;;;;;12.30;5.80;;;;;;;27.14;nan;100754.91;2036949;29;20571;-75
2022/08/05 05:13:31;;;;;;;9.38;5.90;;;;;;;27.19;nan;100762.81;2024455;29;20457;-76
2022/08/05 05:14:33;;;;;;;10.27;6.03;;;;;;;27.12;nan;100759.22;2032151;29;20044;-75
2022/08/05 05:15:38;;;;;;;11.00;5.90;;;;;;;27.22;nan;100758.50;2039032;29;20054;-76
2022/08/05 05:16:42;;;;;;;9.05;5.95;;;;;;;27.20;nan;100755.31;2024537;29;20162;-76
2022/08/05 05:17:45;;;;;;;7.90;6.05;;;;;;;27.28;nan;100762.47;2017360;29;20044;-76
2022/08/05 05:18:48;;;;;;;8.77;5.38;;;;;;;27.30;nan;100754.56;2016979;29;20068;-76
2022/08/05 05:19:54;;;;;;;11.00;6.22;;;;;;;27.38;nan;100760.94;2015688;29;20056;-76
2022/08/05 05:20:57;;;;;;;7.78;5.78;;;;;;;27.40;nan;100748.34;2026005;29;20519;-76
2022/08/05 05:21:59;;;;;;;7.60;5.55;;;;;;;27.35;nan;100756.19;2024435;29;20501;-75
2022/08/05 05:23:03;;;;;;;11.55;5.63;;;;;;;27.27;nan;100755.38;2024678;29;20374;-76
2022/08/05 05:24:08;;;;;;;8.77;5.43;;;;;;;27.28;nan;100745.91;2009393;29;20049;-76